sensor_id;sensor_type;location;lat;lon;timestamp;temperature;humidity
2647;DHT22;1333;50.958;6.770;2023-02-01T00:01:26;7.60;99.90
2647;DHT22;1333;50.958;6.770;2023-02-01T00:03:52;7.50;99.90
2647;DHT22;1333;50.958;6.770;2023-02-01T00:06:17;7.40;99.90
2647;DHT22;1333;50.958;6.770;2023-02-01T00:08:43;7.30;99.90
2647;DHT22;1333;50.958;6.770;2023-02-01T00:11:10;7.20;99.90
2647;DHT22;1333;50.958;6.770;2023-02-01T00:13:38;7.10;99.90
2647;DHT22;1333;50.958;6.770;2023-02-01T00:18:41;6.90;99.90
2647;DHT22;1333;50.958;6.770;2023-02-01T00:21:07;6.80;99.90
2647;DHT22;1333;50.958;6.770;2023-02-01T00:23:34;6.90;99.90
2647;DHT22;1333;50.958;6.770;2023-02-01T00:26:01;6.80;99.90
2647;DHT22;1333;50.958;6.770;2023-02-01T00:28:27;6.80;99.90
2647;DHT22;1333;50.958;6.770;2023-02-01T00:30:57;6.80;99.90
2647;DHT22;1333;50.958;6.770;2023-02-01T00:33:23;6.70;99.90
2647;DHT22;1333;50.958;6.770;2023-02-01T00:35:48;6.70;99.90
2647;DHT22;1333;50.958;6.770;2023-02-01T00:38:14;6.70;99.90
2647;DHT22;1333;50.958;6.770;2023-02-01T00:40:39;6.80;99.90
2647;DHT22;1333;50.958;6.770;2023-02-01T00:43:05;6.80;99.90
2647;DHT22;1333;50.958;6.770;2023-02-01T00:45:30;6.90;99.90
2647;DHT22;1333;50.958;6.770;2023-02-01T00:47:56;7.00;99.90
2647;DHT22;1333;50.958;6.770;2023-02-01T00:50:21;7.00;99.90
2647;DHT22;1333;50.958;6.770;2023-02-01T00:52:47;7.00;99.90
2647;DHT22;1333;50.958;6.770;2023-02-01T00:55:12;7.00;99.90
2647;DHT22;1333;50.958;6.770;2023-02-01T00:57:38;7.10;99.90
2647;DHT22;1333;50.958;6.770;2023-02-01T01:00:04;7.10;99.90
2647;DHT22;1333;50.958;6.770;2023-02-01T01:02:29;7.10;99.90
2647;DHT22;1333;50.958;6.770;2023-02-01T01:04:55;7.10;99.90
2647;DHT22;1333;50.958;6.770;2023-02-01T01:07:20;7.10;99.90
2647;DHT22;1333;50.958;6.770;2023-02-01T01:09:46;7.20;99.90
2647;DHT22;1333;50.958;6.770;2023-02-01T01:12:12;7.20;99.90
2647;DHT22;1333;50.958;6.770;2023-02-01T01:14:37;7.20;99.90
2647;DHT22;1333;50.958;6.770;2023-02-01T01:17:03;7.10;99.90
2647;DHT22;1333;50.958;6.770;2023-02-01T01:19:28;7.20;99.90
2647;DHT22;1333;50.958;6.770;2023-02-01T01:21:54;7.00;99.90
2647;DHT22;1333;50.958;6.770;2023-02-01T01:24:19;7.20;99.90
2647;DHT22;1333;50.958;6.770;2023-02-01T01:26:45;7.20;99.90
2647;DHT22;1333;50.958;6.770;2023-02-01T01:29:11;7.20;99.90
2647;DHT22;1333;50.958;6.770;2023-02-01T01:31:36;7.20;99.90
2647;DHT22;1333;50.958;6.770;2023-02-01T01:34:02;7.10;99.90
2647;DHT22;1333;50.958;6.770;2023-02-01T01:36:29;7.20;99.90
2647;DHT22;1333;50.958;6.770;2023-02-01T01:38:55;7.20;99.90
2647;DHT22;1333;50.958;6.770;2023-02-01T01:41:26;7.00;99.90
2647;DHT22;1333;50.958;6.770;2023-02-01T01:43:55;7.00;99.90
2647;DHT22;1333;50.958;6.770;2023-02-01T01:49:07;6.80;99.90
2647;DHT22;1333;50.958;6.770;2023-02-01T01:51:42;6.70;99.90
2647;DHT22;1333;50.958;6.770;2023-02-01T01:56:43;6.50;99.90
2647;DHT22;1333;50.958;6.770;2023-02-01T01:59:11;6.50;99.90
2647;DHT22;1333;50.958;6.770;2023-02-01T02:01:37;6.40;99.90
2647;DHT22;1333;50.958;6.770;2023-02-01T02:04:03;6.50;99.90
2647;DHT22;1333;50.958;6.770;2023-02-01T02:09:21;6.60;99.90
2647;DHT22;1333;50.958;6.770;2023-02-01T02:11:46;6.60;99.90
2647;DHT22;1333;50.958;6.770;2023-02-01T02:14:14;6.60;99.90
2647;DHT22;1333;50.958;6.770;2023-02-01T02:22:16;6.70;99.90
2647;DHT22;1333;50.958;6.770;2023-02-01T02:30:35;6.80;99.90
2647;DHT22;1333;50.958;6.770;2023-02-01T02:38:32;6.90;99.90
2647;DHT22;1333;50.958;6.770;2023-02-01T02:44:46;7.00;99.90
2647;DHT22;1333;50.958;6.770;2023-02-01T02:47:50;7.00;99.90
2647;DHT22;1333;50.958;6.770;2023-02-01T02:50:35;7.10;99.90
2647;DHT22;1333;50.958;6.770;2023-02-01T02:53:29;7.10;99.90
2647;DHT22;1333;50.958;6.770;2023-02-01T02:56:16;7.20;99.90
2647;DHT22;1333;50.958;6.770;2023-02-01T02:59:02;7.10;99.90
2647;DHT22;1333;50.958;6.770;2023-02-01T03:01:48;7.20;99.90
2647;DHT22;1333;50.958;6.770;2023-02-01T03:04:33;7.10;99.90
2647;DHT22;1333;50.958;6.770;2023-02-01T03:07:45;7.10;99.90
2647;DHT22;1333;50.958;6.770;2023-02-01T03:10:03;7.00;99.90
2647;DHT22;1333;50.958;6.770;2023-02-01T03:12:34;7.00;99.90
2647;DHT22;1333;50.958;6.770;2023-02-01T03:15:34;7.10;99.90
2647;DHT22;1333;50.958;6.770;2023-02-01T03:18:03;7.20;99.90
2647;DHT22;1333;50.958;6.770;2023-02-01T03:20:31;7.10;99.90
2647;DHT22;1333;50.958;6.770;2023-02-01T03:22:59;7.10;99.90
2647;DHT22;1333;50.958;6.770;2023-02-01T03:25:28;7.10;99.90
2647;DHT22;1333;50.958;6.770;2023-02-01T03:28:03;7.10;99.90
2647;DHT22;1333;50.958;6.770;2023-02-01T03:30:34;7.20;99.90
2647;DHT22;1333;50.958;6.770;2023-02-01T03:33:03;7.10;99.90
2647;DHT22;1333;50.958;6.770;2023-02-01T03:41:18;7.10;99.90
2647;DHT22;1333;50.958;6.770;2023-02-01T03:44:22;7.00;99.90
2647;DHT22;1333;50.958;6.770;2023-02-01T03:47:14;7.00;99.90
2647;DHT22;1333;50.958;6.770;2023-02-01T03:49:47;6.90;99.90
2647;DHT22;1333;50.958;6.770;2023-02-01T03:52:25;6.80;99.90
2647;DHT22;1333;50.958;6.770;2023-02-01T03:54:53;6.70;99.90
2647;DHT22;1333;50.958;6.770;2023-02-01T03:57:27;6.70;99.90
2647;DHT22;1333;50.958;6.770;2023-02-01T03:59:53;6.60;99.90
2647;DHT22;1333;50.958;6.770;2023-02-01T04:02:19;6.50;99.90
2647;DHT22;1333;50.958;6.770;2023-02-01T04:04:44;6.50;99.90
2647;DHT22;1333;50.958;6.770;2023-02-01T04:07:10;6.60;99.90
2647;DHT22;1333;50.958;6.770;2023-02-01T04:09:36;6.70;99.90
2647;DHT22;1333;50.958;6.770;2023-02-01T04:12:01;6.70;99.90
2647;DHT22;1333;50.958;6.770;2023-02-01T04:14:27;6.70;99.90
2647;DHT22;1333;50.958;6.770;2023-02-01T04:16:53;6.70;99.90
2647;DHT22;1333;50.958;6.770;2023-02-01T04:19:18;6.70;99.90
2647;DHT22;1333;50.958;6.770;2023-02-01T04:21:44;6.70;99.90
2647;DHT22;1333;50.958;6.770;2023-02-01T04:24:09;6.80;99.90
2647;DHT22;1333;50.958;6.770;2023-02-01T04:26:35;6.70;99.90
2647;DHT22;1333;50.958;6.770;2023-02-01T04:29:01;6.80;99.90
2647;DHT22;1333;50.958;6.770;2023-02-01T04:31:26;6.80;99.90
2647;DHT22;1333;50.958;6.770;2023-02-01T04:33:53;6.80;99.90
2647;DHT22;1333;50.958;6.770;2023-02-01T04:36:22;6.80;99.90
2647;DHT22;1333;50.958;6.770;2023-02-01T04:38:51;6.80;99.90
2647;DHT22;1333;50.958;6.770;2023-02-01T04:41:18;6.80;99.90
2647;DHT22;1333;50.958;6.770;2023-02-01T04:43:47;6.70;99.90
2647;DHT22;1333;50.958;6.770;2023-02-01T04:46:13;6.70;99.90
2647;DHT22;1333;50.958;6.770;2023-02-01T04:48:39;6.50;99.90
2647;DHT22;1333;50.958;6.770;2023-02-01T04:51:04;6.50;99.90
2647;DHT22;1333;50.958;6.770;2023-02-01T04:53:30;6.40;99.90
2647;DHT22;1333;50.958;6.770;2023-02-01T04:55:56;6.30;99.90
2647;DHT22;1333;50.958;6.770;2023-02-01T04:58:21;6.20;99.90
2647;DHT22;1333;50.958;6.770;2023-02-01T05:00:47;6.10;99.90
2647;DHT22;1333;50.958;6.770;2023-02-01T05:03:12;6.10;99.90
2647;DHT22;1333;50.958;6.770;2023-02-01T05:05:38;6.00;99.90
2647;DHT22;1333;50.958;6.770;2023-02-01T05:08:03;6.00;99.90
2647;DHT22;1333;50.958;6.770;2023-02-01T05:10:29;5.90;99.90
2647;DHT22;1333;50.958;6.770;2023-02-01T05:12:54;6.00;99.90
2647;DHT22;1333;50.958;6.770;2023-02-01T05:15:39;5.90;99.90
2647;DHT22;1333;50.958;6.770;2023-02-01T05:18:04;5.90;99.90
2647;DHT22;1333;50.958;6.770;2023-02-01T05:20:30;6.00;99.90
2647;DHT22;1333;50.958;6.770;2023-02-01T05:22:55;5.90;99.90
2647;DHT22;1333;50.958;6.770;2023-02-01T05:25:21;5.90;99.90
2647;DHT22;1333;50.958;6.770;2023-02-01T05:27:46;5.80;99.90
2647;DHT22;1333;50.958;6.770;2023-02-01T05:30:12;5.80;99.90
2647;DHT22;1333;50.958;6.770;2023-02-01T05:32:38;5.70;99.90
2647;DHT22;1333;50.958;6.770;2023-02-01T05:35:03;5.70;99.90
2647;DHT22;1333;50.958;6.770;2023-02-01T05:37:29;5.70;99.90
2647;DHT22;1333;50.958;6.770;2023-02-01T05:39:54;5.70;99.90
2647;DHT22;1333;50.958;6.770;2023-02-01T05:42:20;5.80;99.90
2647;DHT22;1333;50.958;6.770;2023-02-01T05:44:45;5.70;99.90
2647;DHT22;1333;50.958;6.770;2023-02-01T05:47:11;5.70;99.90
2647;DHT22;1333;50.958;6.770;2023-02-01T05:49:37;5.70;99.90
2647;DHT22;1333;50.958;6.770;2023-02-01T05:52:03;5.70;99.90
2647;DHT22;1333;50.958;6.770;2023-02-01T05:54:29;5.70;99.90
2647;DHT22;1333;50.958;6.770;2023-02-01T05:56:54;5.70;99.90
2647;DHT22;1333;50.958;6.770;2023-02-01T05:59:20;5.70;99.90
2647;DHT22;1333;50.958;6.770;2023-02-01T06:01:45;5.60;99.90
2647;DHT22;1333;50.958;6.770;2023-02-01T06:04:11;5.60;99.90
2647;DHT22;1333;50.958;6.770;2023-02-01T06:06:37;5.60;99.90
2647;DHT22;1333;50.958;6.770;2023-02-01T06:09:03;5.60;99.90
2647;DHT22;1333;50.958;6.770;2023-02-01T06:11:29;5.60;99.90
2647;DHT22;1333;50.958;6.770;2023-02-01T06:13:54;5.60;99.90
2647;DHT22;1333;50.958;6.770;2023-02-01T06:16:21;5.60;99.90
2647;DHT22;1333;50.958;6.770;2023-02-01T06:18:46;5.50;99.90
2647;DHT22;1333;50.958;6.770;2023-02-01T06:21:12;5.60;99.90
2647;DHT22;1333;50.958;6.770;2023-02-01T06:23:38;5.60;99.90
2647;DHT22;1333;50.958;6.770;2023-02-01T06:26:05;5.50;99.90
2647;DHT22;1333;50.958;6.770;2023-02-01T06:28:34;5.50;99.90
2647;DHT22;1333;50.958;6.770;2023-02-01T06:31:04;5.50;99.90
2647;DHT22;1333;50.958;6.770;2023-02-01T06:33:32;5.50;99.90
2647;DHT22;1333;50.958;6.770;2023-02-01T06:35:59;5.50;99.90
2647;DHT22;1333;50.958;6.770;2023-02-01T06:38:25;5.50;99.90
2647;DHT22;1333;50.958;6.770;2023-02-01T06:40:55;5.50;99.90
2647;DHT22;1333;50.958;6.770;2023-02-01T06:43:22;5.50;99.90
2647;DHT22;1333;50.958;6.770;2023-02-01T06:45:48;5.50;99.90
2647;DHT22;1333;50.958;6.770;2023-02-01T06:48:13;5.50;99.90
2647;DHT22;1333;50.958;6.770;2023-02-01T06:50:39;5.60;99.90
2647;DHT22;1333;50.958;6.770;2023-02-01T06:53:04;5.70;99.90
2647;DHT22;1333;50.958;6.770;2023-02-01T06:55:30;5.70;99.90
2647;DHT22;1333;50.958;6.770;2023-02-01T06:57:56;5.80;99.90
2647;DHT22;1333;50.958;6.770;2023-02-01T07:00:22;5.80;99.90
2647;DHT22;1333;50.958;6.770;2023-02-01T07:02:48;5.80;99.90
2647;DHT22;1333;50.958;6.770;2023-02-01T07:05:13;5.80;99.90
2647;DHT22;1333;50.958;6.770;2023-02-01T07:07:39;5.80;99.90
2647;DHT22;1333;50.958;6.770;2023-02-01T07:10:05;5.80;99.90
2647;DHT22;1333;50.958;6.770;2023-02-01T07:12:31;5.70;99.90
2647;DHT22;1333;50.958;6.770;2023-02-01T07:14:56;5.80;99.90
2647;DHT22;1333;50.958;6.770;2023-02-01T07:17:22;5.90;99.90
2647;DHT22;1333;50.958;6.770;2023-02-01T07:19:48;5.90;99.90
2647;DHT22;1333;50.958;6.770;2023-02-01T07:22:16;6.00;99.90
2647;DHT22;1333;50.958;6.770;2023-02-01T07:24:42;6.00;99.90
2647;DHT22;1333;50.958;6.770;2023-02-01T07:27:07;6.10;99.90
2647;DHT22;1333;50.958;6.770;2023-02-01T07:29:33;6.10;99.90
2647;DHT22;1333;50.958;6.770;2023-02-01T07:31:58;6.10;99.90
2647;DHT22;1333;50.958;6.770;2023-02-01T07:34:24;6.20;99.90
2647;DHT22;1333;50.958;6.770;2023-02-01T07:36:49;6.20;99.90
2647;DHT22;1333;50.958;6.770;2023-02-01T07:39:15;6.10;99.90
2647;DHT22;1333;50.958;6.770;2023-02-01T07:41:40;6.20;99.90
2647;DHT22;1333;50.958;6.770;2023-02-01T07:44:06;6.20;99.90
2647;DHT22;1333;50.958;6.770;2023-02-01T07:46:31;6.40;99.90
2647;DHT22;1333;50.958;6.770;2023-02-01T07:48:57;6.40;99.90
2647;DHT22;1333;50.958;6.770;2023-02-01T07:51:22;6.40;99.90
2647;DHT22;1333;50.958;6.770;2023-02-01T07:53:48;6.40;99.90
2647;DHT22;1333;50.958;6.770;2023-02-01T07:56:19;6.50;99.90
2647;DHT22;1333;50.958;6.770;2023-02-01T07:58:53;6.60;99.90
2647;DHT22;1333;50.958;6.770;2023-02-01T08:01:25;6.60;99.90
2647;DHT22;1333;50.958;6.770;2023-02-01T08:03:56;6.60;99.90
2647;DHT22;1333;50.958;6.770;2023-02-01T08:06:23;6.70;99.90
2647;DHT22;1333;50.958;6.770;2023-02-01T08:08:49;6.60;99.90
2647;DHT22;1333;50.958;6.770;2023-02-01T08:11:16;6.70;99.90
2647;DHT22;1333;50.958;6.770;2023-02-01T08:13:43;6.70;99.90
2647;DHT22;1333;50.958;6.770;2023-02-01T08:16:10;6.70;99.90
2647;DHT22;1333;50.958;6.770;2023-02-01T08:18:37;6.70;99.90
2647;DHT22;1333;50.958;6.770;2023-02-01T08:23:34;6.60;99.90
2647;DHT22;1333;50.958;6.770;2023-02-01T08:26:20;6.70;99.90
2647;DHT22;1333;50.958;6.770;2023-02-01T08:28:49;6.70;99.90
2647;DHT22;1333;50.958;6.770;2023-02-01T08:31:18;6.70;99.90
2647;DHT22;1333;50.958;6.770;2023-02-01T08:33:49;6.70;99.90
2647;DHT22;1333;50.958;6.770;2023-02-01T08:36:15;6.70;99.90
2647;DHT22;1333;50.958;6.770;2023-02-01T08:38:41;6.70;99.90
2647;DHT22;1333;50.958;6.770;2023-02-01T08:41:18;6.60;99.90
2647;DHT22;1333;50.958;6.770;2023-02-01T08:43:44;6.70;99.90
2647;DHT22;1333;50.958;6.770;2023-02-01T08:46:10;6.80;99.90
2647;DHT22;1333;50.958;6.770;2023-02-01T08:48:37;7.10;99.90
2647;DHT22;1333;50.958;6.770;2023-02-01T08:51:09;7.10;99.90
2647;DHT22;1333;50.958;6.770;2023-02-01T08:53:35;7.20;99.90
2647;DHT22;1333;50.958;6.770;2023-02-01T08:56:01;7.30;99.90
2647;DHT22;1333;50.958;6.770;2023-02-01T08:58:27;7.30;99.90
2647;DHT22;1333;50.958;6.770;2023-02-01T09:00:53;7.30;99.90
2647;DHT22;1333;50.958;6.770;2023-02-01T09:03:18;7.50;99.90
2647;DHT22;1333;50.958;6.770;2023-02-01T09:05:44;7.70;99.90
2647;DHT22;1333;50.958;6.770;2023-02-01T09:08:11;7.80;99.90
2647;DHT22;1333;50.958;6.770;2023-02-01T09:10:39;8.00;99.90
2647;DHT22;1333;50.958;6.770;2023-02-01T09:13:05;8.60;99.90
2647;DHT22;1333;50.958;6.770;2023-02-01T09:15:31;9.40;99.90
2647;DHT22;1333;50.958;6.770;2023-02-01T09:17:56;10.00;99.90
2647;DHT22;1333;50.958;6.770;2023-02-01T09:20:22;10.30;99.90
2647;DHT22;1333;50.958;6.770;2023-02-01T09:22:50;10.20;99.90
2647;DHT22;1333;50.958;6.770;2023-02-01T09:25:16;10.00;99.90
2647;DHT22;1333;50.958;6.770;2023-02-01T09:27:42;9.70;99.90
2647;DHT22;1333;50.958;6.770;2023-02-01T09:30:08;9.40;99.90
2647;DHT22;1333;50.958;6.770;2023-02-01T09:32:34;8.90;99.90
2647;DHT22;1333;50.958;6.770;2023-02-01T09:34:59;8.80;99.90
2647;DHT22;1333;50.958;6.770;2023-02-01T09:37:25;8.40;99.90
2647;DHT22;1333;50.958;6.770;2023-02-01T09:39:51;8.30;99.90
2647;DHT22;1333;50.958;6.770;2023-02-01T09:47:22;8.80;99.90
2647;DHT22;1333;50.958;6.770;2023-02-01T09:49:56;8.90;99.90
2647;DHT22;1333;50.958;6.770;2023-02-01T09:52:31;9.10;99.90
2647;DHT22;1333;50.958;6.770;2023-02-01T09:55:03;9.10;99.90
2647;DHT22;1333;50.958;6.770;2023-02-01T09:57:44;9.10;99.90
2647;DHT22;1333;50.958;6.770;2023-02-01T10:00:18;9.00;99.90
2647;DHT22;1333;50.958;6.770;2023-02-01T10:02:45;8.90;99.90
2647;DHT22;1333;50.958;6.770;2023-02-01T10:05:16;8.70;99.90
2647;DHT22;1333;50.958;6.770;2023-02-01T10:08:08;8.80;99.90
2647;DHT22;1333;50.958;6.770;2023-02-01T10:10:44;8.90;99.90
2647;DHT22;1333;50.958;6.770;2023-02-01T10:13:46;9.30;99.90
2647;DHT22;1333;50.958;6.770;2023-02-01T10:16:17;9.60;99.90
2647;DHT22;1333;50.958;6.770;2023-02-01T10:19:24;9.60;99.90
2647;DHT22;1333;50.958;6.770;2023-02-01T10:22:08;10.00;99.90
2647;DHT22;1333;50.958;6.770;2023-02-01T10:24:46;10.30;99.90
2647;DHT22;1333;50.958;6.770;2023-02-01T10:27:21;10.70;99.90
2647;DHT22;1333;50.958;6.770;2023-02-01T10:29:54;11.30;99.90
2647;DHT22;1333;50.958;6.770;2023-02-01T10:32:23;11.60;99.90
2647;DHT22;1333;50.958;6.770;2023-02-01T10:34:58;11.60;99.90
2647;DHT22;1333;50.958;6.770;2023-02-01T10:37:29;12.10;99.90
2647;DHT22;1333;50.958;6.770;2023-02-01T10:39:56;13.20;99.90
2647;DHT22;1333;50.958;6.770;2023-02-01T10:42:27;13.40;99.90
2647;DHT22;1333;50.958;6.770;2023-02-01T10:44:58;14.50;99.90
2647;DHT22;1333;50.958;6.770;2023-02-01T10:47:24;15.10;99.90
2647;DHT22;1333;50.958;6.770;2023-02-01T10:53:05;15.70;94.30
2647;DHT22;1333;50.958;6.770;2023-02-01T10:55:39;14.60;91.10
2647;DHT22;1333;50.958;6.770;2023-02-01T10:58:17;14.50;93.40
2647;DHT22;1333;50.958;6.770;2023-02-01T11:00:49;14.60;93.00
2647;DHT22;1333;50.958;6.770;2023-02-01T11:03:39;14.30;92.90
2647;DHT22;1333;50.958;6.770;2023-02-01T11:06:32;14.30;93.60
2647;DHT22;1333;50.958;6.770;2023-02-01T11:09:09;14.10;94.40
2647;DHT22;1333;50.958;6.770;2023-02-01T11:14:19;12.80;94.80
2647;DHT22;1333;50.958;6.770;2023-02-01T11:16:49;12.40;96.70
2647;DHT22;1333;50.958;6.770;2023-02-01T11:19:16;12.10;99.10
2647;DHT22;1333;50.958;6.770;2023-02-01T11:21:43;11.80;99.90
2647;DHT22;1333;50.958;6.770;2023-02-01T11:24:22;11.50;99.90
2647;DHT22;1333;50.958;6.770;2023-02-01T11:26:49;11.20;99.90
2647;DHT22;1333;50.958;6.770;2023-02-01T11:29:17;11.30;99.90
2647;DHT22;1333;50.958;6.770;2023-02-01T11:31:47;11.90;99.90
2647;DHT22;1333;50.958;6.770;2023-02-01T11:34:20;11.60;99.90
2647;DHT22;1333;50.958;6.770;2023-02-01T11:36:48;11.40;99.90
2647;DHT22;1333;50.958;6.770;2023-02-01T11:44:45;11.20;99.90
2647;DHT22;1333;50.958;6.770;2023-02-01T11:47:27;10.80;99.90
2647;DHT22;1333;50.958;6.770;2023-02-01T11:49:55;10.60;99.90
2647;DHT22;1333;50.958;6.770;2023-02-01T12:00:44;10.10;99.90
2647;DHT22;1333;50.958;6.770;2023-02-01T12:08:37;9.80;99.90
2647;DHT22;1333;50.958;6.770;2023-02-01T12:17:01;9.70;99.90
2647;DHT22;1333;50.958;6.770;2023-02-01T12:19:44;9.80;99.90
2647;DHT22;1333;50.958;6.770;2023-02-01T12:25:34;9.80;99.90
2647;DHT22;1333;50.958;6.770;2023-02-01T12:36:36;9.80;99.90
2647;DHT22;1333;50.958;6.770;2023-02-01T12:39:16;9.80;99.90
2647;DHT22;1333;50.958;6.770;2023-02-01T12:42:03;9.90;99.90
2647;DHT22;1333;50.958;6.770;2023-02-01T12:47:39;10.00;99.90
2647;DHT22;1333;50.958;6.770;2023-02-01T12:50:15;9.90;99.90
2647;DHT22;1333;50.958;6.770;2023-02-01T12:52:49;9.80;99.90
2647;DHT22;1333;50.958;6.770;2023-02-01T13:01:00;9.60;99.90
2647;DHT22;1333;50.958;6.770;2023-02-01T13:03:38;9.20;99.90
2647;DHT22;1333;50.958;6.770;2023-02-01T13:06:13;9.00;99.90
2647;DHT22;1333;50.958;6.770;2023-02-01T13:09:17;9.00;99.90
2647;DHT22;1333;50.958;6.770;2023-02-01T13:11:45;8.90;99.90
2647;DHT22;1333;50.958;6.770;2023-02-01T13:16:46;8.80;99.90
2647;DHT22;1333;50.958;6.770;2023-02-01T13:21:53;8.80;99.90
2647;DHT22;1333;50.958;6.770;2023-02-01T13:27:14;8.80;99.90
2647;DHT22;1333;50.958;6.770;2023-02-01T13:35:36;8.70;99.90
2647;DHT22;1333;50.958;6.770;2023-02-01T13:41:19;8.80;99.90
2647;DHT22;1333;50.958;6.770;2023-02-01T13:43:51;8.80;99.90
2647;DHT22;1333;50.958;6.770;2023-02-01T13:46:18;8.90;99.90
2647;DHT22;1333;50.958;6.770;2023-02-01T13:48:52;8.80;99.90
2647;DHT22;1333;50.958;6.770;2023-02-01T13:51:33;8.80;99.90
2647;DHT22;1333;50.958;6.770;2023-02-01T13:53:59;8.80;99.90
2647;DHT22;1333;50.958;6.770;2023-02-01T13:56:25;8.80;99.90
2647;DHT22;1333;50.958;6.770;2023-02-01T13:58:51;8.70;99.90
2647;DHT22;1333;50.958;6.770;2023-02-01T14:03:52;9.00;99.90
2647;DHT22;1333;50.958;6.770;2023-02-01T14:09:12;9.00;99.90
2647;DHT22;1333;50.958;6.770;2023-02-01T14:16:41;9.30;99.90
2647;DHT22;1333;50.958;6.770;2023-02-01T14:19:28;9.20;99.90
2647;DHT22;1333;50.958;6.770;2023-02-01T14:24:53;9.30;99.90
2647;DHT22;1333;50.958;6.770;2023-02-01T14:27:24;9.30;99.90
2647;DHT22;1333;50.958;6.770;2023-02-01T14:29:53;9.30;99.90
2647;DHT22;1333;50.958;6.770;2023-02-01T14:32:25;9.30;99.90
2647;DHT22;1333;50.958;6.770;2023-02-01T14:34:53;9.20;99.90
2647;DHT22;1333;50.958;6.770;2023-02-01T14:37:26;9.10;99.90
2647;DHT22;1333;50.958;6.770;2023-02-01T14:40:03;9.20;99.90
2647;DHT22;1333;50.958;6.770;2023-02-01T14:42:45;9.20;99.90
2647;DHT22;1333;50.958;6.770;2023-02-01T14:55:58;9.10;99.90
2647;DHT22;1333;50.958;6.770;2023-02-01T15:01:22;9.20;99.90
2647;DHT22;1333;50.958;6.770;2023-02-01T15:08:48;9.30;99.90
2647;DHT22;1333;50.958;6.770;2023-02-01T15:11:15;9.30;99.90
2647;DHT22;1333;50.958;6.770;2023-02-01T15:13:48;9.30;99.90
2647;DHT22;1333;50.958;6.770;2023-02-01T15:16:16;9.40;99.90
2647;DHT22;1333;50.958;6.770;2023-02-01T15:18:42;9.40;99.90
2647;DHT22;1333;50.958;6.770;2023-02-01T15:21:41;9.40;99.90
2647;DHT22;1333;50.958;6.770;2023-02-01T15:24:14;9.30;99.90
2647;DHT22;1333;50.958;6.770;2023-02-01T15:26:43;9.30;99.90
2647;DHT22;1333;50.958;6.770;2023-02-01T15:29:11;9.30;99.90
2647;DHT22;1333;50.958;6.770;2023-02-01T15:31:47;9.30;99.90
2647;DHT22;1333;50.958;6.770;2023-02-01T15:34:13;9.30;99.90
2647;DHT22;1333;50.958;6.770;2023-02-01T15:36:40;9.30;99.90
2647;DHT22;1333;50.958;6.770;2023-02-01T15:39:20;9.20;99.90
2647;DHT22;1333;50.958;6.770;2023-02-01T15:41:54;9.30;99.90
2647;DHT22;1333;50.958;6.770;2023-02-01T15:44:22;9.20;99.90
2647;DHT22;1333;50.958;6.770;2023-02-01T15:46:50;9.20;99.90
2647;DHT22;1333;50.958;6.770;2023-02-01T15:49:18;9.20;99.90
2647;DHT22;1333;50.958;6.770;2023-02-01T15:51:46;9.20;99.90
2647;DHT22;1333;50.958;6.770;2023-02-01T15:54:17;9.30;99.90
2647;DHT22;1333;50.958;6.770;2023-02-01T15:56:58;9.20;99.90
2647;DHT22;1333;50.958;6.770;2023-02-01T15:59:31;9.10;99.90
2647;DHT22;1333;50.958;6.770;2023-02-01T16:01:58;9.20;99.90
2647;DHT22;1333;50.958;6.770;2023-02-01T16:04:25;9.10;99.90
2647;DHT22;1333;50.958;6.770;2023-02-01T16:06:53;9.10;99.90
2647;DHT22;1333;50.958;6.770;2023-02-01T16:09:24;9.00;99.90
2647;DHT22;1333;50.958;6.770;2023-02-01T16:12:01;8.90;99.90
2647;DHT22;1333;50.958;6.770;2023-02-01T16:14:27;8.80;99.90
2647;DHT22;1333;50.958;6.770;2023-02-01T16:16:56;8.90;99.90
2647;DHT22;1333;50.958;6.770;2023-02-01T16:19:21;8.80;99.90
2647;DHT22;1333;50.958;6.770;2023-02-01T16:21:50;8.90;99.90
2647;DHT22;1333;50.958;6.770;2023-02-01T16:24:15;8.80;99.90
2647;DHT22;1333;50.958;6.770;2023-02-01T16:26:41;8.70;99.90
2647;DHT22;1333;50.958;6.770;2023-02-01T16:29:07;8.60;99.90
2647;DHT22;1333;50.958;6.770;2023-02-01T16:31:36;8.50;99.90
2647;DHT22;1333;50.958;6.770;2023-02-01T16:34:03;8.50;99.90
2647;DHT22;1333;50.958;6.770;2023-02-01T16:36:28;8.40;99.90
2647;DHT22;1333;50.958;6.770;2023-02-01T16:38:55;8.20;99.90
2647;DHT22;1333;50.958;6.770;2023-02-01T16:41:22;8.20;99.90
2647;DHT22;1333;50.958;6.770;2023-02-01T16:43:53;8.20;99.90
2647;DHT22;1333;50.958;6.770;2023-02-01T16:46:21;8.10;99.90
2647;DHT22;1333;50.958;6.770;2023-02-01T16:48:59;8.10;99.90
2647;DHT22;1333;50.958;6.770;2023-02-01T16:51:28;8.00;99.90
2647;DHT22;1333;50.958;6.770;2023-02-01T16:53:54;8.00;99.90
2647;DHT22;1333;50.958;6.770;2023-02-01T16:56:28;7.90;99.90
2647;DHT22;1333;50.958;6.770;2023-02-01T16:58:54;7.90;99.90
2647;DHT22;1333;50.958;6.770;2023-02-01T17:01:20;7.90;99.90
2647;DHT22;1333;50.958;6.770;2023-02-01T17:03:46;8.00;99.90
2647;DHT22;1333;50.958;6.770;2023-02-01T17:06:19;8.00;99.90
2647;DHT22;1333;50.958;6.770;2023-02-01T17:08:50;8.00;99.90
2647;DHT22;1333;50.958;6.770;2023-02-01T17:11:16;8.00;99.90
2647;DHT22;1333;50.958;6.770;2023-02-01T17:13:41;8.10;99.90
2647;DHT22;1333;50.958;6.770;2023-02-01T17:16:24;8.10;99.90
2647;DHT22;1333;50.958;6.770;2023-02-01T17:18:59;8.10;99.90
2647;DHT22;1333;50.958;6.770;2023-02-01T17:21:29;8.00;99.90
2647;DHT22;1333;50.958;6.770;2023-02-01T17:23:56;8.10;99.90
2647;DHT22;1333;50.958;6.770;2023-02-01T17:26:24;8.10;99.90
2647;DHT22;1333;50.958;6.770;2023-02-01T17:28:50;8.00;99.90
2647;DHT22;1333;50.958;6.770;2023-02-01T17:31:16;7.90;99.90
2647;DHT22;1333;50.958;6.770;2023-02-01T17:33:43;7.90;99.90
2647;DHT22;1333;50.958;6.770;2023-02-01T17:36:12;7.90;99.90
2647;DHT22;1333;50.958;6.770;2023-02-01T17:38:38;7.80;99.90
2647;DHT22;1333;50.958;6.770;2023-02-01T17:41:04;7.90;99.90
2647;DHT22;1333;50.958;6.770;2023-02-01T17:43:29;8.00;99.90
2647;DHT22;1333;50.958;6.770;2023-02-01T17:46:33;7.90;99.90
2647;DHT22;1333;50.958;6.770;2023-02-01T17:48:53;8.00;99.90
2647;DHT22;1333;50.958;6.770;2023-02-01T17:51:25;7.90;99.90
2647;DHT22;1333;50.958;6.770;2023-02-01T17:53:52;7.90;99.90
2647;DHT22;1333;50.958;6.770;2023-02-01T17:56:20;7.90;99.90
2647;DHT22;1333;50.958;6.770;2023-02-01T17:58:46;8.00;99.90
2647;DHT22;1333;50.958;6.770;2023-02-01T18:01:15;8.10;99.90
2647;DHT22;1333;50.958;6.770;2023-02-01T18:03:41;8.10;99.90
2647;DHT22;1333;50.958;6.770;2023-02-01T18:06:12;8.10;99.90
2647;DHT22;1333;50.958;6.770;2023-02-01T18:08:38;8.10;99.90
2647;DHT22;1333;50.958;6.770;2023-02-01T18:11:08;8.00;99.90
2647;DHT22;1333;50.958;6.770;2023-02-01T18:13:34;8.10;99.90
2647;DHT22;1333;50.958;6.770;2023-02-01T18:15:59;8.10;99.90
2647;DHT22;1333;50.958;6.770;2023-02-01T18:18:26;8.20;99.90
2647;DHT22;1333;50.958;6.770;2023-02-01T18:20:53;8.10;99.90
2647;DHT22;1333;50.958;6.770;2023-02-01T18:23:21;8.20;99.90
2647;DHT22;1333;50.958;6.770;2023-02-01T18:25:48;8.20;99.90
2647;DHT22;1333;50.958;6.770;2023-02-01T18:28:14;8.10;99.90
2647;DHT22;1333;50.958;6.770;2023-02-01T18:30:41;8.10;99.90
2647;DHT22;1333;50.958;6.770;2023-02-01T18:33:12;8.10;99.90
2647;DHT22;1333;50.958;6.770;2023-02-01T18:35:38;8.10;99.90
2647;DHT22;1333;50.958;6.770;2023-02-01T18:38:04;8.00;99.90
2647;DHT22;1333;50.958;6.770;2023-02-01T18:40:32;8.00;99.90
2647;DHT22;1333;50.958;6.770;2023-02-01T18:42:59;8.00;99.90
2647;DHT22;1333;50.958;6.770;2023-02-01T18:45:35;8.00;99.90
2647;DHT22;1333;50.958;6.770;2023-02-01T18:48:02;8.00;99.90
2647;DHT22;1333;50.958;6.770;2023-02-01T18:50:29;8.10;99.90
2647;DHT22;1333;50.958;6.770;2023-02-01T18:52:56;8.10;99.90
2647;DHT22;1333;50.958;6.770;2023-02-01T18:55:24;8.10;99.90
2647;DHT22;1333;50.958;6.770;2023-02-01T18:57:50;8.10;99.90